Flight Track Log - Related Links

Times and Time Zones

All times are in EDT time to prevent confusion due to time zone crossing. See the AWI3551 flight status page for this flight to view local times or setup timezone preferences in your user account.

Time Position Orientation Groundspeed Altitude Reporting Facility
EDT Latitude Longitude Course Direction KTS MPH feet Rate Location/Type
Thu 05:33:56 AM 42.9333 -78.7500 174° South 171 197 1,700  Level Buffalo TRACON
Thu 05:34:56 AM 42.8833 -78.7833 206° Southwest 196 226 4,000 2,529 Climbing Buffalo TRACON
Thu 05:35:57 AM 42.8333 -78.7833 180° South 220 253 6,800 2,311 Climbing Buffalo TRACON
Thu 05:36:00 AM 42.6178 -78.6835 172° South  Level FlightAware Approximate
Thu 05:36:58 AM 42.7650 -78.7703 172° South 234 269 8,700  Level Cleveland Center
Thu 05:37:00 AM 42.5131 -78.6633 173° South  Level FlightAware Approximate
Thu 05:37:58 AM 42.6853 -78.7500 169° South 250 288 10,900  Level Cleveland Center
Thu 05:38:00 AM 42.4078 -78.6500 180° South  Level FlightAware Approximate
Thu 05:38:58 AM 42.5997 -78.7300 170° South 284 327 13,200  Level Cleveland Center
Thu 05:39:00 AM 42.3024 -78.6408 174° South  Level FlightAware Approximate
Thu 05:39:58 AM 42.5075 -78.7103 171° South 317 365 15,700  Level Cleveland Center
Thu 05:40:58 AM 42.4133 -78.6878 170° South 340 391 17,800 2,100 Climbing Cleveland Center
Thu 05:41:58 AM 42.3150 -78.6653 170° South 353 406 19,900 1,600 Climbing Cleveland Center
Thu 05:42:58 AM 42.2147 -78.6458 172° South 358 412 21,000 550 Climbing Cleveland Center
Thu 05:43:58 AM 42.1206 -78.6292 173° South 371 427 21,000  Level Cleveland Center
Thu 05:44:58 AM 42.0183 -78.6239 178° South 377 434 21,000  Level Cleveland Center
Thu 05:45:58 AM 41.9183 -78.6242 180° South 377 434 21,000  Level Cleveland Center
Thu 05:46:58 AM 41.8181 -78.6217 179° South 371 427 21,000  Level Cleveland Center
Thu 05:47:58 AM 41.7214 -78.5744 160° South 361 415 21,000  Level Cleveland Center
Thu 05:48:58 AM 41.6286 -78.5081 152° Southeast 368 423 21,000  Level Cleveland Center
Thu 05:49:58 AM 41.5378 -78.4417 151° Southeast 378 435 21,000  Level Cleveland Center
Thu 05:50:58 AM 41.4447 -78.3725 151° Southeast 383 441 21,000  Level Cleveland Center
Thu 05:52:25 AM 41.3133 -78.2764 151° Southeast 367 422 21,000  Level New York Center
Thu 05:53:27 AM 41.2194 -78.2108 152° Southeast 367 422 21,000  Level New York Center
Thu 05:54:26 AM 41.1258 -78.1425 151° Southeast 379 436 21,000  Level New York Center
Thu 05:55:27 AM 41.0319 -78.0775 152° Southeast 379 436 21,000  Level New York Center
Thu 05:56:25 AM 40.9400 -78.0125 152° Southeast 379 436 21,000 -50 Level New York Center
Thu 05:57:27 AM 40.8644 -77.9167 136° Southeast 379 436 20,900 -555 Descending New York Center
Thu 05:58:24 AM 40.7939 -77.8078 131° Southeast 378 435 19,900 -1,017 Descending New York Center
Thu 05:59:25 AM 40.7250 -77.7050 131° Southeast 378 435 18,900 -934 Descending New York Center
Thu 06:00:26 AM 40.6561 -77.5967 130° Southeast 378 435 18,000 -450 Descending New York Center
Thu 06:01:25 AM 40.5792 -77.4853 132° Southeast 371 427 18,000  Level New York Center
Thu 06:02:26 AM 40.5175 -77.3944 132° Southeast 371 427 18,000  Level New York Center
Thu 06:03:26 AM 40.4664 -77.2642 117° Southeast 371 427 18,000  Level New York Center
Thu 06:04:26 AM 40.4372 -77.1494 108° East 366 421 18,000  Level New York Center
Thu 06:05:27 AM 40.4031 -77.0072 107° East 374 430 18,000  Level New York Center
Thu 06:06:25 AM 40.3719 -76.8872 109° East 374 430 18,000  Level New York Center
Thu 06:07:25 AM 40.3408 -76.7592 108° East 374 430 18,000  Level New York Center
Thu 06:08:25 AM 40.3044 -76.6144 108° East 374 430 18,000 -446 Level New York Center
Thu 06:09:26 AM 40.2731 -76.4894 108° East 374 430 17,100 -1,279 Descending New York Center
Thu 06:10:27 AM 40.2433 -76.3672 108° East 362 417 15,400 -1,613 Descending New York Center
Thu 06:11:25 AM 40.2169 -76.2672 109° East 339 390 13,900 -1,600 Descending New York Center
Thu 06:12:27 AM 40.1850 -76.1453 109° East 332 382 12,200 -1,500 Descending New York Center
Thu 06:13:25 AM 40.1567 -76.0344 108° East 327 376 10,900 -1,322 Descending New York Center
Thu 06:14:25 AM 40.1300 -75.9292 108° East 316 364 9,600 -1,300 Descending New York Center
Thu 06:15:25 AM 40.1094 -75.8272 105° East 303 349 8,300 -793 Descending New York Center
Thu 06:16:26 AM 40.1214 -75.7383 80° East 282 325 8,000 -148 Descending New York Center
Thu 06:17:27 AM 40.1344 -75.6253 81° East 277 319 8,000  Level New York Center
Thu 06:18:27 AM 40.1422 -75.5417 83° East 271 312 8,000  Level New York Center
Thu 06:19:27 AM 40.1544 -75.4447 81° East 250 288 8,000  Level New York Center
Thu 06:20:24 AM 40.1656 -75.3694 79° East 240 276 8,000  Level New York Center
Thu 06:21:25 AM 40.1586 -75.2794 96° East 226 260 8,000 -561 Level New York Center
Thu 06:22:11 AM 40.1167 -75.2500 152° Southeast 244 281 7,000 -1,132 Descending Philadelphia TRACON
Thu 06:23:11 AM 40.0500 -75.2167 159° South 232 267 6,000 -900 Descending Philadelphia TRACON
Thu 06:24:11 AM 40.0000 -75.1833 153° Southeast 200 230 5,200 -950 Descending Philadelphia TRACON
Thu 06:25:11 AM 39.9500 -75.1667 166° South 208 239 4,100 -600 Descending Philadelphia TRACON
Thu 06:26:11 AM 39.8833 -75.1500 169° South 206 237 4,000 -53 Descending Philadelphia TRACON
Thu 06:27:05 AM 39.8333 -75.1333 166° South 202 232 4,000  Level Philadelphia TRACON
Thu 06:28:05 AM 39.7833 -75.1000 153° Southeast 202 232 4,000  Level Philadelphia TRACON
Thu 06:29:06 AM 39.7500 -75.0500 131° Southeast 211 243 4,000 -95 Level Philadelphia TRACON
Thu 06:30:11 AM 39.7000 -75.0167 153° Southeast 209 241 3,800 -454 Descending Philadelphia TRACON
Thu 06:31:05 AM 39.6833 -75.0833 252° West 191 220 3,100 -778 Descending Philadelphia TRACON

Login

Don't have an account? Register now (free) for customized features, flight alerts, and more!